sensor_id;sensor_type;location;lat;lon;timestamp;P1;durP1;ratioP1;P2;durP2;ratioP2
31087;SDS011;17745;55.914;37.554;2023-02-07T00:02:41;21.50;;;12.82;;
31087;SDS011;17745;55.914;37.554;2023-02-07T00:05:23;16.25;;;11.40;;
31087;SDS011;17745;55.914;37.554;2023-02-07T00:08:08;18.20;;;12.43;;
31087;SDS011;17745;55.914;37.554;2023-02-07T00:10:44;16.48;;;10.93;;
31087;SDS011;17745;55.914;37.554;2023-02-07T00:13:23;19.85;;;11.75;;
31087;SDS011;17745;55.914;37.554;2023-02-07T00:16:16;18.52;;;12.02;;
31087;SDS011;17745;55.914;37.554;2023-02-07T00:18:52;21.12;;;11.27;;
31087;SDS011;17745;55.914;37.554;2023-02-07T00:21:24;16.62;;;10.75;;
31087;SDS011;17745;55.914;37.554;2023-02-07T00:24:00;21.05;;;11.43;;
31087;SDS011;17745;55.914;37.554;2023-02-07T00:26:29;20.80;;;11.85;;
31087;SDS011;17745;55.914;37.554;2023-02-07T00:29:01;19.48;;;11.07;;
31087;SDS011;17745;55.914;37.554;2023-02-07T00:34:33;18.77;;;11.00;;
31087;SDS011;17745;55.914;37.554;2023-02-07T00:37:05;15.82;;;11.38;;
31087;SDS011;17745;55.914;37.554;2023-02-07T00:39:48;16.55;;;11.82;;
31087;SDS011;17745;55.914;37.554;2023-02-07T00:42:22;18.48;;;11.43;;
31087;SDS011;17745;55.914;37.554;2023-02-07T00:45:02;18.23;;;11.57;;
31087;SDS011;17745;55.914;37.554;2023-02-07T00:47:53;17.23;;;11.40;;
31087;SDS011;17745;55.914;37.554;2023-02-07T00:50:39;16.05;;;11.30;;
31087;SDS011;17745;55.914;37.554;2023-02-07T00:53:13;15.02;;;11.00;;
31087;SDS011;17745;55.914;37.554;2023-02-07T00:56:02;17.62;;;10.90;;
31087;SDS011;17745;55.914;37.554;2023-02-07T00:59:00;17.70;;;11.15;;
31087;SDS011;17745;55.914;37.554;2023-02-07T01:01:52;17.12;;;11.02;;
31087;SDS011;17745;55.914;37.554;2023-02-07T01:04:30;16.42;;;11.70;;
31087;SDS011;17745;55.914;37.554;2023-02-07T01:07:07;17.52;;;11.40;;
31087;SDS011;17745;55.914;37.554;2023-02-07T01:09:37;18.77;;;10.88;;
31087;SDS011;17745;55.914;37.554;2023-02-07T01:12:08;16.05;;;11.43;;
31087;SDS011;17745;55.914;37.554;2023-02-07T01:14:40;17.15;;;11.40;;
31087;SDS011;17745;55.914;37.554;2023-02-07T01:17:10;16.17;;;10.77;;
31087;SDS011;17745;55.914;37.554;2023-02-07T01:19:42;16.45;;;11.43;;
31087;SDS011;17745;55.914;37.554;2023-02-07T01:22:13;17.20;;;11.30;;
31087;SDS011;17745;55.914;37.554;2023-02-07T01:24:41;19.85;;;11.35;;
31087;SDS011;17745;55.914;37.554;2023-02-07T01:27:14;16.77;;;10.82;;
31087;SDS011;17745;55.914;37.554;2023-02-07T01:29:42;18.08;;;10.60;;
31087;SDS011;17745;55.914;37.554;2023-02-07T01:32:10;16.40;;;11.60;;
31087;SDS011;17745;55.914;37.554;2023-02-07T01:34:43;16.65;;;11.35;;
31087;SDS011;17745;55.914;37.554;2023-02-07T01:37:14;17.35;;;11.70;;
31087;SDS011;17745;55.914;37.554;2023-02-07T01:39:42;16.87;;;11.30;;
31087;SDS011;17745;55.914;37.554;2023-02-07T01:42:11;17.55;;;12.02;;
31087;SDS011;17745;55.914;37.554;2023-02-07T01:47:54;15.35;;;12.27;;
31087;SDS011;17745;55.914;37.554;2023-02-07T01:50:27;15.45;;;11.23;;
31087;SDS011;17745;55.914;37.554;2023-02-07T01:52:56;16.98;;;10.70;;
31087;SDS011;17745;55.914;37.554;2023-02-07T01:55:27;17.95;;;11.75;;
31087;SDS011;17745;55.914;37.554;2023-02-07T01:57:59;16.25;;;11.60;;
31087;SDS011;17745;55.914;37.554;2023-02-07T02:00:29;15.55;;;10.82;;
31087;SDS011;17745;55.914;37.554;2023-02-07T02:02:58;16.33;;;11.73;;
31087;SDS011;17745;55.914;37.554;2023-02-07T02:05:28;17.15;;;11.32;;
31087;SDS011;17745;55.914;37.554;2023-02-07T02:07:57;16.27;;;11.80;;
31087;SDS011;17745;55.914;37.554;2023-02-07T02:10:27;17.73;;;12.23;;
31087;SDS011;17745;55.914;37.554;2023-02-07T02:13:14;20.52;;;12.20;;
31087;SDS011;17745;55.914;37.554;2023-02-07T02:15:51;16.23;;;12.40;;
31087;SDS011;17745;55.914;37.554;2023-02-07T02:18:32;16.85;;;12.23;;
31087;SDS011;17745;55.914;37.554;2023-02-07T02:27:22;19.30;;;11.55;;
31087;SDS011;17745;55.914;37.554;2023-02-07T02:30:25;16.92;;;11.25;;
31087;SDS011;17745;55.914;37.554;2023-02-07T02:33:22;18.52;;;11.65;;
31087;SDS011;17745;55.914;37.554;2023-02-07T02:36:06;16.63;;;11.20;;
31087;SDS011;17745;55.914;37.554;2023-02-07T02:38:48;16.33;;;11.40;;
31087;SDS011;17745;55.914;37.554;2023-02-07T02:41:23;19.58;;;11.48;;
31087;SDS011;17745;55.914;37.554;2023-02-07T02:44:00;17.62;;;10.02;;
31087;SDS011;17745;55.914;37.554;2023-02-07T02:46:38;14.85;;;10.60;;
31087;SDS011;17745;55.914;37.554;2023-02-07T02:51:41;15.02;;;10.65;;
31087;SDS011;17745;55.914;37.554;2023-02-07T02:54:28;16.30;;;10.75;;
31087;SDS011;17745;55.914;37.554;2023-02-07T02:57:05;19.70;;;11.02;;
31087;SDS011;17745;55.914;37.554;2023-02-07T02:59:45;19.95;;;11.55;;
31087;SDS011;17745;55.914;37.554;2023-02-07T03:02:33;16.20;;;10.55;;
31087;SDS011;17745;55.914;37.554;2023-02-07T03:05:15;19.92;;;11.43;;
31087;SDS011;17745;55.914;37.554;2023-02-07T03:07:55;14.95;;;10.23;;
31087;SDS011;17745;55.914;37.554;2023-02-07T03:10:31;15.32;;;8.88;;
31087;SDS011;17745;55.914;37.554;2023-02-07T03:13:10;16.40;;;10.27;;
31087;SDS011;17745;55.914;37.554;2023-02-07T03:15:48;13.02;;;6.47;;
31087;SDS011;17745;55.914;37.554;2023-02-07T03:18:30;14.87;;;9.73;;
31087;SDS011;17745;55.914;37.554;2023-02-07T03:21:14;14.60;;;9.98;;
31087;SDS011;17745;55.914;37.554;2023-02-07T03:23:47;12.65;;;8.27;;
31087;SDS011;17745;55.914;37.554;2023-02-07T03:26:25;10.85;;;7.78;;
31087;SDS011;17745;55.914;37.554;2023-02-07T03:28:59;13.57;;;9.98;;
31087;SDS011;17745;55.914;37.554;2023-02-07T03:31:40;17.37;;;11.12;;
31087;SDS011;17745;55.914;37.554;2023-02-07T03:34:13;17.10;;;11.23;;
31087;SDS011;17745;55.914;37.554;2023-02-07T03:36:52;17.98;;;10.88;;
31087;SDS011;17745;55.914;37.554;2023-02-07T03:39:23;17.05;;;11.20;;
31087;SDS011;17745;55.914;37.554;2023-02-07T03:41:53;15.48;;;11.07;;
31087;SDS011;17745;55.914;37.554;2023-02-07T03:44:25;16.65;;;10.50;;
31087;SDS011;17745;55.914;37.554;2023-02-07T03:46:55;16.00;;;10.85;;
31087;SDS011;17745;55.914;37.554;2023-02-07T03:49:25;14.68;;;10.07;;
31087;SDS011;17745;55.914;37.554;2023-02-07T03:51:55;13.15;;;9.80;;
31087;SDS011;17745;55.914;37.554;2023-02-07T03:54:23;16.15;;;11.00;;
31087;SDS011;17745;55.914;37.554;2023-02-07T03:56:52;20.08;;;12.43;;
31087;SDS011;17745;55.914;37.554;2023-02-07T03:59:21;17.33;;;11.12;;
31087;SDS011;17745;55.914;37.554;2023-02-07T04:01:49;14.38;;;10.07;;
31087;SDS011;17745;55.914;37.554;2023-02-07T04:04:24;16.12;;;11.38;;
31087;SDS011;17745;55.914;37.554;2023-02-07T04:06:51;16.08;;;11.05;;
31087;SDS011;17745;55.914;37.554;2023-02-07T04:09:26;16.15;;;11.27;;
31087;SDS011;17745;55.914;37.554;2023-02-07T04:11:54;17.52;;;11.05;;
31087;SDS011;17745;55.914;37.554;2023-02-07T04:14:25;18.15;;;11.05;;
31087;SDS011;17745;55.914;37.554;2023-02-07T04:16:53;16.70;;;11.65;;
31087;SDS011;17745;55.914;37.554;2023-02-07T04:19:21;16.70;;;11.90;;
31087;SDS011;17745;55.914;37.554;2023-02-07T04:21:49;14.45;;;10.82;;
31087;SDS011;17745;55.914;37.554;2023-02-07T04:24:19;18.50;;;11.32;;
31087;SDS011;17745;55.914;37.554;2023-02-07T04:26:49;15.43;;;10.10;;
31087;SDS011;17745;55.914;37.554;2023-02-07T04:29:18;20.27;;;11.52;;
31087;SDS011;17745;55.914;37.554;2023-02-07T04:31:46;16.25;;;9.32;;
31087;SDS011;17745;55.914;37.554;2023-02-07T04:34:16;16.77;;;12.20;;
31087;SDS011;17745;55.914;37.554;2023-02-07T04:36:45;20.73;;;11.30;;
31087;SDS011;17745;55.914;37.554;2023-02-07T04:39:16;10.23;;;7.05;;
31087;SDS011;17745;55.914;37.554;2023-02-07T04:41:54;12.18;;;7.72;;
31087;SDS011;17745;55.914;37.554;2023-02-07T04:44:26;11.95;;;8.73;;
31087;SDS011;17745;55.914;37.554;2023-02-07T04:47:00;18.20;;;10.83;;
31087;SDS011;17745;55.914;37.554;2023-02-07T04:49:31;10.23;;;6.85;;
31087;SDS011;17745;55.914;37.554;2023-02-07T04:52:01;13.73;;;9.65;;
31087;SDS011;17745;55.914;37.554;2023-02-07T04:54:32;8.80;;;6.82;;
31087;SDS011;17745;55.914;37.554;2023-02-07T04:57:07;15.52;;;10.02;;
31087;SDS011;17745;55.914;37.554;2023-02-07T04:59:36;11.43;;;7.40;;
31087;SDS011;17745;55.914;37.554;2023-02-07T05:02:05;9.38;;;6.45;;
31087;SDS011;17745;55.914;37.554;2023-02-07T05:04:33;9.63;;;7.45;;
31087;SDS011;17745;55.914;37.554;2023-02-07T05:07:03;5.70;;;4.32;;
31087;SDS011;17745;55.914;37.554;2023-02-07T05:09:34;13.32;;;8.07;;
31087;SDS011;17745;55.914;37.554;2023-02-07T05:12:03;6.57;;;4.97;;
31087;SDS011;17745;55.914;37.554;2023-02-07T05:14:39;12.43;;;8.82;;
31087;SDS011;17745;55.914;37.554;2023-02-07T05:17:10;20.23;;;11.15;;
31087;SDS011;17745;55.914;37.554;2023-02-07T05:19:42;19.30;;;11.65;;
31087;SDS011;17745;55.914;37.554;2023-02-07T05:22:14;19.30;;;10.32;;
31087;SDS011;17745;55.914;37.554;2023-02-07T05:24:49;15.95;;;9.73;;
31087;SDS011;17745;55.914;37.554;2023-02-07T05:27:21;17.25;;;8.35;;
31087;SDS011;17745;55.914;37.554;2023-02-07T05:29:51;14.30;;;8.27;;
31087;SDS011;17745;55.914;37.554;2023-02-07T05:32:22;15.63;;;10.43;;
31087;SDS011;17745;55.914;37.554;2023-02-07T05:35:12;16.27;;;9.90;;
31087;SDS011;17745;55.914;37.554;2023-02-07T05:37:55;14.10;;;7.15;;
31087;SDS011;17745;55.914;37.554;2023-02-07T05:43:02;11.12;;;7.25;;
31087;SDS011;17745;55.914;37.554;2023-02-07T05:45:38;17.73;;;11.18;;
31087;SDS011;17745;55.914;37.554;2023-02-07T05:48:08;19.30;;;11.27;;
31087;SDS011;17745;55.914;37.554;2023-02-07T05:50:42;17.17;;;11.57;;
31087;SDS011;17745;55.914;37.554;2023-02-07T05:53:31;17.77;;;11.20;;
31087;SDS011;17745;55.914;37.554;2023-02-07T05:56:04;20.75;;;12.52;;
31087;SDS011;17745;55.914;37.554;2023-02-07T05:58:40;19.23;;;12.50;;
31087;SDS011;17745;55.914;37.554;2023-02-07T06:01:09;21.90;;;12.48;;
31087;SDS011;17745;55.914;37.554;2023-02-07T06:03:42;20.15;;;11.77;;
31087;SDS011;17745;55.914;37.554;2023-02-07T06:06:11;26.42;;;12.60;;
31087;SDS011;17745;55.914;37.554;2023-02-07T06:08:41;17.95;;;11.48;;
31087;SDS011;17745;55.914;37.554;2023-02-07T06:11:11;20.48;;;12.60;;
31087;SDS011;17745;55.914;37.554;2023-02-07T06:13:50;19.40;;;12.65;;
31087;SDS011;17745;55.914;37.554;2023-02-07T06:16:20;16.17;;;11.38;;
31087;SDS011;17745;55.914;37.554;2023-02-07T06:18:51;17.02;;;11.93;;
31087;SDS011;17745;55.914;37.554;2023-02-07T06:21:19;14.48;;;9.57;;
31087;SDS011;17745;55.914;37.554;2023-02-07T06:23:47;18.12;;;10.85;;
31087;SDS011;17745;55.914;37.554;2023-02-07T06:26:17;19.62;;;12.25;;
31087;SDS011;17745;55.914;37.554;2023-02-07T06:28:50;20.30;;;12.40;;
31087;SDS011;17745;55.914;37.554;2023-02-07T06:31:20;16.52;;;11.60;;
31087;SDS011;17745;55.914;37.554;2023-02-07T06:33:52;15.75;;;11.45;;
31087;SDS011;17745;55.914;37.554;2023-02-07T06:36:25;16.37;;;11.32;;
31087;SDS011;17745;55.914;37.554;2023-02-07T06:38:53;17.15;;;10.88;;
31087;SDS011;17745;55.914;37.554;2023-02-07T06:41:32;15.00;;;10.52;;
31087;SDS011;17745;55.914;37.554;2023-02-07T06:44:03;21.83;;;11.60;;
31087;SDS011;17745;55.914;37.554;2023-02-07T06:46:33;17.60;;;11.75;;
31087;SDS011;17745;55.914;37.554;2023-02-07T06:49:01;18.02;;;11.73;;
31087;SDS011;17745;55.914;37.554;2023-02-07T06:51:33;18.90;;;11.82;;
31087;SDS011;17745;55.914;37.554;2023-02-07T06:54:02;17.15;;;11.68;;
31087;SDS011;17745;55.914;37.554;2023-02-07T06:56:44;20.05;;;11.07;;
31087;SDS011;17745;55.914;37.554;2023-02-07T06:59:20;18.48;;;11.23;;
31087;SDS011;17745;55.914;37.554;2023-02-07T07:01:54;15.82;;;10.75;;
31087;SDS011;17745;55.914;37.554;2023-02-07T07:04:37;16.20;;;11.18;;
31087;SDS011;17745;55.914;37.554;2023-02-07T07:07:08;16.27;;;10.05;;
31087;SDS011;17745;55.914;37.554;2023-02-07T07:09:43;20.25;;;12.20;;
31087;SDS011;17745;55.914;37.554;2023-02-07T07:12:19;16.98;;;11.43;;
31087;SDS011;17745;55.914;37.554;2023-02-07T07:15:00;21.95;;;11.80;;
31087;SDS011;17745;55.914;37.554;2023-02-07T07:17:36;14.73;;;9.88;;
31087;SDS011;17745;55.914;37.554;2023-02-07T07:20:07;14.85;;;10.80;;
31087;SDS011;17745;55.914;37.554;2023-02-07T07:22:39;17.27;;;10.88;;
31087;SDS011;17745;55.914;37.554;2023-02-07T07:25:11;18.98;;;11.82;;
31087;SDS011;17745;55.914;37.554;2023-02-07T07:27:51;15.38;;;10.50;;
31087;SDS011;17745;55.914;37.554;2023-02-07T07:30:25;18.62;;;11.73;;
31087;SDS011;17745;55.914;37.554;2023-02-07T07:32:55;14.75;;;11.15;;
31087;SDS011;17745;55.914;37.554;2023-02-07T07:35:26;15.65;;;11.02;;
31087;SDS011;17745;55.914;37.554;2023-02-07T07:37:59;19.55;;;11.98;;
31087;SDS011;17745;55.914;37.554;2023-02-07T07:40:29;16.62;;;10.85;;
31087;SDS011;17745;55.914;37.554;2023-02-07T07:43:02;15.02;;;10.80;;
31087;SDS011;17745;55.914;37.554;2023-02-07T07:45:42;17.70;;;11.38;;
31087;SDS011;17745;55.914;37.554;2023-02-07T07:48:12;15.85;;;10.82;;
31087;SDS011;17745;55.914;37.554;2023-02-07T07:50:51;21.45;;;10.25;;
31087;SDS011;17745;55.914;37.554;2023-02-07T07:53:21;20.20;;;12.05;;
31087;SDS011;17745;55.914;37.554;2023-02-07T07:56:40;15.88;;;10.38;;
31087;SDS011;17745;55.914;37.554;2023-02-07T07:59:13;14.40;;;9.63;;
31087;SDS011;17745;55.914;37.554;2023-02-07T08:09:53;14.63;;;9.98;;
31087;SDS011;17745;55.914;37.554;2023-02-07T08:43:46;15.68;;;10.25;;
31087;SDS011;17745;55.914;37.554;2023-02-07T08:49:20;16.73;;;10.13;;
31087;SDS011;17745;55.914;37.554;2023-02-07T08:52:15;16.50;;;9.77;;
31087;SDS011;17745;55.914;37.554;2023-02-07T09:11:21;14.15;;;9.20;;
31087;SDS011;17745;55.914;37.554;2023-02-07T09:13:51;14.85;;;9.40;;
31087;SDS011;17745;55.914;37.554;2023-02-07T09:16:28;13.38;;;9.25;;
31087;SDS011;17745;55.914;37.554;2023-02-07T09:19:02;16.10;;;10.00;;
31087;SDS011;17745;55.914;37.554;2023-02-07T09:21:34;17.70;;;10.43;;
31087;SDS011;17745;55.914;37.554;2023-02-07T09:32:00;14.77;;;9.75;;
31087;SDS011;17745;55.914;37.554;2023-02-07T09:34:56;13.55;;;9.88;;
31087;SDS011;17745;55.914;37.554;2023-02-07T09:38:10;15.30;;;9.43;;
31087;SDS011;17745;55.914;37.554;2023-02-07T09:41:13;14.43;;;9.43;;
31087;SDS011;17745;55.914;37.554;2023-02-07T09:47:21;16.83;;;10.05;;
31087;SDS011;17745;55.914;37.554;2023-02-07T09:50:12;14.40;;;9.80;;
31087;SDS011;17745;55.914;37.554;2023-02-07T09:53:08;15.55;;;11.15;;
31087;SDS011;17745;55.914;37.554;2023-02-07T09:55:43;14.38;;;9.43;;
31087;SDS011;17745;55.914;37.554;2023-02-07T09:58:45;13.23;;;9.35;;
31087;SDS011;17745;55.914;37.554;2023-02-07T10:01:28;16.77;;;10.85;;
31087;SDS011;17745;55.914;37.554;2023-02-07T10:04:12;13.57;;;9.35;;
31087;SDS011;17745;55.914;37.554;2023-02-07T10:06:56;15.90;;;9.75;;
31087;SDS011;17745;55.914;37.554;2023-02-07T10:09:29;15.52;;;9.57;;
31087;SDS011;17745;55.914;37.554;2023-02-07T10:12:03;16.30;;;9.43;;
31087;SDS011;17745;55.914;37.554;2023-02-07T10:15:02;14.95;;;10.07;;
31087;SDS011;17745;55.914;37.554;2023-02-07T10:17:42;16.62;;;10.63;;
31087;SDS011;17745;55.914;37.554;2023-02-07T10:20:29;15.57;;;9.50;;
31087;SDS011;17745;55.914;37.554;2023-02-07T10:23:06;16.98;;;10.48;;
31087;SDS011;17745;55.914;37.554;2023-02-07T10:25:50;18.45;;;10.50;;
31087;SDS011;17745;55.914;37.554;2023-02-07T10:28:29;22.98;;;10.75;;
31087;SDS011;17745;55.914;37.554;2023-02-07T10:31:14;13.85;;;9.35;;
31087;SDS011;17745;55.914;37.554;2023-02-07T10:33:46;16.67;;;10.88;;
31087;SDS011;17745;55.914;37.554;2023-02-07T10:36:20;14.18;;;9.18;;
31087;SDS011;17745;55.914;37.554;2023-02-07T10:38:52;15.38;;;10.13;;
31087;SDS011;17745;55.914;37.554;2023-02-07T10:41:30;16.75;;;10.30;;
31087;SDS011;17745;55.914;37.554;2023-02-07T10:44:03;22.00;;;11.00;;
31087;SDS011;17745;55.914;37.554;2023-02-07T10:49:25;7.22;;;5.72;;
31087;SDS011;17745;55.914;37.554;2023-02-07T10:51:58;11.98;;;7.40;;
31087;SDS011;17745;55.914;37.554;2023-02-07T10:54:32;17.15;;;11.70;;
31087;SDS011;17745;55.914;37.554;2023-02-07T10:57:20;20.60;;;10.57;;
31087;SDS011;17745;55.914;37.554;2023-02-07T11:00:08;18.52;;;10.82;;
31087;SDS011;17745;55.914;37.554;2023-02-07T11:02:55;18.10;;;11.57;;
31087;SDS011;17745;55.914;37.554;2023-02-07T11:08:05;16.92;;;10.63;;
31087;SDS011;17745;55.914;37.554;2023-02-07T11:10:56;17.40;;;10.95;;
31087;SDS011;17745;55.914;37.554;2023-02-07T11:13:27;17.37;;;10.50;;
31087;SDS011;17745;55.914;37.554;2023-02-07T11:16:00;18.55;;;10.23;;
31087;SDS011;17745;55.914;37.554;2023-02-07T11:18:40;15.38;;;10.63;;
31087;SDS011;17745;55.914;37.554;2023-02-07T11:21:20;12.75;;;9.10;;
31087;SDS011;17745;55.914;37.554;2023-02-07T11:23:53;16.37;;;9.60;;
31087;SDS011;17745;55.914;37.554;2023-02-07T11:26:26;8.57;;;6.47;;
31087;SDS011;17745;55.914;37.554;2023-02-07T11:29:05;14.05;;;9.32;;
31087;SDS011;17745;55.914;37.554;2023-02-07T11:31:49;14.75;;;9.55;;
31087;SDS011;17745;55.914;37.554;2023-02-07T11:34:50;12.93;;;8.55;;
31087;SDS011;17745;55.914;37.554;2023-02-07T11:37:25;16.40;;;9.93;;
31087;SDS011;17745;55.914;37.554;2023-02-07T11:40:15;14.75;;;9.57;;
31087;SDS011;17745;55.914;37.554;2023-02-07T11:42:56;14.57;;;10.25;;
31087;SDS011;17745;55.914;37.554;2023-02-07T11:45:34;14.55;;;9.05;;
31087;SDS011;17745;55.914;37.554;2023-02-07T11:48:20;13.60;;;9.35;;
31087;SDS011;17745;55.914;37.554;2023-02-07T11:51:02;11.63;;;8.38;;
31087;SDS011;17745;55.914;37.554;2023-02-07T11:53:48;10.75;;;8.13;;
31087;SDS011;17745;55.914;37.554;2023-02-07T11:56:28;18.90;;;8.95;;
31087;SDS011;17745;55.914;37.554;2023-02-07T11:59:05;9.82;;;5.55;;
31087;SDS011;17745;55.914;37.554;2023-02-07T12:01:42;12.20;;;8.48;;
31087;SDS011;17745;55.914;37.554;2023-02-07T12:04:27;13.45;;;8.48;;
31087;SDS011;17745;55.914;37.554;2023-02-07T12:07:18;13.13;;;9.23;;
31087;SDS011;17745;55.914;37.554;2023-02-07T12:09:58;12.57;;;9.10;;
31087;SDS011;17745;55.914;37.554;2023-02-07T12:12:35;16.95;;;10.20;;
31087;SDS011;17745;55.914;37.554;2023-02-07T12:15:24;17.80;;;8.52;;
31087;SDS011;17745;55.914;37.554;2023-02-07T12:18:02;14.45;;;8.52;;
31087;SDS011;17745;55.914;37.554;2023-02-07T12:20:47;14.60;;;9.25;;
31087;SDS011;17745;55.914;37.554;2023-02-07T12:23:40;12.23;;;8.75;;
31087;SDS011;17745;55.914;37.554;2023-02-07T12:26:20;12.40;;;7.62;;
31087;SDS011;17745;55.914;37.554;2023-02-07T12:29:05;14.05;;;8.30;;
31087;SDS011;17745;55.914;37.554;2023-02-07T12:31:55;9.52;;;6.53;;
31087;SDS011;17745;55.914;37.554;2023-02-07T12:34:33;11.10;;;6.78;;
31087;SDS011;17745;55.914;37.554;2023-02-07T12:37:13;13.68;;;8.88;;
31087;SDS011;17745;55.914;37.554;2023-02-07T12:39:55;13.82;;;8.48;;
31087;SDS011;17745;55.914;37.554;2023-02-07T12:42:36;14.93;;;8.35;;
31087;SDS011;17745;55.914;37.554;2023-02-07T12:45:12;11.60;;;6.35;;
31087;SDS011;17745;55.914;37.554;2023-02-07T12:49:00;12.93;;;8.23;;
31087;SDS011;17745;55.914;37.554;2023-02-07T12:52:23;14.82;;;9.80;;
31087;SDS011;17745;55.914;37.554;2023-02-07T13:02:29;13.20;;;8.35;;
31087;SDS011;17745;55.914;37.554;2023-02-07T13:05:33;12.07;;;6.95;;
31087;SDS011;17745;55.914;37.554;2023-02-07T13:08:44;13.85;;;7.95;;
31087;SDS011;17745;55.914;37.554;2023-02-07T13:11:48;14.32;;;9.10;;
31087;SDS011;17745;55.914;37.554;2023-02-07T13:14:59;16.58;;;9.82;;
31087;SDS011;17745;55.914;37.554;2023-02-07T13:21:13;14.35;;;8.95;;
31087;SDS011;17745;55.914;37.554;2023-02-07T13:24:06;14.80;;;9.68;;
31087;SDS011;17745;55.914;37.554;2023-02-07T13:27:10;14.60;;;9.82;;
31087;SDS011;17745;55.914;37.554;2023-02-07T13:33:35;21.73;;;9.53;;
31087;SDS011;17745;55.914;37.554;2023-02-07T13:43:35;22.00;;;10.15;;
31087;SDS011;17745;55.914;37.554;2023-02-07T13:50:29;25.62;;;8.82;;
31087;SDS011;17745;55.914;37.554;2023-02-07T13:53:38;19.02;;;9.88;;
31087;SDS011;17745;55.914;37.554;2023-02-07T14:02:40;14.77;;;9.07;;
31087;SDS011;17745;55.914;37.554;2023-02-07T14:05:21;15.85;;;9.02;;
31087;SDS011;17745;55.914;37.554;2023-02-07T14:07:54;14.77;;;8.95;;
31087;SDS011;17745;55.914;37.554;2023-02-07T14:10:45;12.80;;;8.73;;
31087;SDS011;17745;55.914;37.554;2023-02-07T14:13:34;13.55;;;8.90;;
31087;SDS011;17745;55.914;37.554;2023-02-07T14:16:41;12.75;;;8.65;;
31087;SDS011;17745;55.914;37.554;2023-02-07T14:25:42;14.93;;;8.45;;
31087;SDS011;17745;55.914;37.554;2023-02-07T14:28:37;17.00;;;10.00;;
31087;SDS011;17745;55.914;37.554;2023-02-07T14:31:28;17.33;;;9.98;;
31087;SDS011;17745;55.914;37.554;2023-02-07T14:34:18;16.42;;;10.00;;
31087;SDS011;17745;55.914;37.554;2023-02-07T14:37:18;19.55;;;9.00;;
31087;SDS011;17745;55.914;37.554;2023-02-07T14:39:52;17.62;;;8.63;;
31087;SDS011;17745;55.914;37.554;2023-02-07T14:42:45;14.10;;;8.77;;
31087;SDS011;17745;55.914;37.554;2023-02-07T14:45:43;17.35;;;9.85;;
31087;SDS011;17745;55.914;37.554;2023-02-07T14:48:48;17.95;;;10.25;;
31087;SDS011;17745;55.914;37.554;2023-02-07T14:51:40;24.52;;;10.82;;
31087;SDS011;17745;55.914;37.554;2023-02-07T14:57:24;20.58;;;10.15;;
31087;SDS011;17745;55.914;37.554;2023-02-07T15:00:14;16.50;;;9.07;;
31087;SDS011;17745;55.914;37.554;2023-02-07T15:03:10;21.27;;;11.00;;
31087;SDS011;17745;55.914;37.554;2023-02-07T15:05:50;21.40;;;10.35;;
31087;SDS011;17745;55.914;37.554;2023-02-07T15:08:22;19.37;;;9.07;;
31087;SDS011;17745;55.914;37.554;2023-02-07T15:10:55;13.20;;;8.82;;
31087;SDS011;17745;55.914;37.554;2023-02-07T15:13:36;17.67;;;9.80;;
31087;SDS011;17745;55.914;37.554;2023-02-07T15:16:07;16.00;;;9.05;;
31087;SDS011;17745;55.914;37.554;2023-02-07T15:18:45;15.98;;;8.77;;
31087;SDS011;17745;55.914;37.554;2023-02-07T15:21:26;18.52;;;9.18;;
31087;SDS011;17745;55.914;37.554;2023-02-07T15:24:15;20.33;;;10.32;;
31087;SDS011;17745;55.914;37.554;2023-02-07T15:27:05;17.00;;;9.45;;
31087;SDS011;17745;55.914;37.554;2023-02-07T15:32:40;22.87;;;9.88;;
31087;SDS011;17745;55.914;37.554;2023-02-07T15:35:15;19.35;;;10.35;;
31087;SDS011;17745;55.914;37.554;2023-02-07T15:38:15;15.23;;;9.68;;
31087;SDS011;17745;55.914;37.554;2023-02-07T15:40:56;18.23;;;9.73;;
31087;SDS011;17745;55.914;37.554;2023-02-07T15:43:29;17.90;;;9.98;;
31087;SDS011;17745;55.914;37.554;2023-02-07T15:46:07;15.93;;;9.10;;
31087;SDS011;17745;55.914;37.554;2023-02-07T15:48:49;15.60;;;9.85;;
31087;SDS011;17745;55.914;37.554;2023-02-07T15:51:37;19.30;;;11.15;;
31087;SDS011;17745;55.914;37.554;2023-02-07T15:54:34;20.12;;;10.82;;
31087;SDS011;17745;55.914;37.554;2023-02-07T15:57:42;19.27;;;11.15;;
31087;SDS011;17745;55.914;37.554;2023-02-07T16:00:26;20.70;;;11.35;;
31087;SDS011;17745;55.914;37.554;2023-02-07T16:03:34;20.27;;;11.73;;
31087;SDS011;17745;55.914;37.554;2023-02-07T16:06:35;21.98;;;10.73;;
31087;SDS011;17745;55.914;37.554;2023-02-07T16:09:42;17.02;;;10.82;;
31087;SDS011;17745;55.914;37.554;2023-02-07T16:13:18;17.80;;;10.70;;
31087;SDS011;17745;55.914;37.554;2023-02-07T16:16:25;21.15;;;12.02;;
31087;SDS011;17745;55.914;37.554;2023-02-07T16:57:54;24.10;;;13.43;;
31087;SDS011;17745;55.914;37.554;2023-02-07T17:01:03;20.10;;;11.18;;
31087;SDS011;17745;55.914;37.554;2023-02-07T17:03:48;26.20;;;14.10;;
31087;SDS011;17745;55.914;37.554;2023-02-07T17:06:26;22.10;;;12.85;;
31087;SDS011;17745;55.914;37.554;2023-02-07T17:12:39;20.20;;;11.95;;
31087;SDS011;17745;55.914;37.554;2023-02-07T17:15:36;20.23;;;12.20;;
31087;SDS011;17745;55.914;37.554;2023-02-07T17:18:52;26.10;;;13.23;;
31087;SDS011;17745;55.914;37.554;2023-02-07T17:22:05;27.02;;;13.95;;
31087;SDS011;17745;55.914;37.554;2023-02-07T17:25:26;21.77;;;12.85;;
31087;SDS011;17745;55.914;37.554;2023-02-07T17:28:00;21.60;;;13.10;;
31087;SDS011;17745;55.914;37.554;2023-02-07T17:37:24;25.05;;;13.75;;
31087;SDS011;17745;55.914;37.554;2023-02-07T17:39:52;26.83;;;13.75;;
31087;SDS011;17745;55.914;37.554;2023-02-07T17:42:26;33.17;;;15.32;;
31087;SDS011;17745;55.914;37.554;2023-02-07T17:44:59;31.02;;;14.70;;
31087;SDS011;17745;55.914;37.554;2023-02-07T17:47:35;41.70;;;17.10;;
31087;SDS011;17745;55.914;37.554;2023-02-07T17:50:04;30.17;;;15.70;;
31087;SDS011;17745;55.914;37.554;2023-02-07T17:52:53;28.95;;;16.25;;
31087;SDS011;17745;55.914;37.554;2023-02-07T17:55:26;31.62;;;16.48;;
31087;SDS011;17745;55.914;37.554;2023-02-07T17:58:05;30.05;;;16.52;;
31087;SDS011;17745;55.914;37.554;2023-02-07T18:00:45;37.72;;;17.65;;
31087;SDS011;17745;55.914;37.554;2023-02-07T18:03:25;31.85;;;15.35;;
31087;SDS011;17745;55.914;37.554;2023-02-07T18:06:02;31.87;;;16.08;;
31087;SDS011;17745;55.914;37.554;2023-02-07T18:08:46;27.95;;;15.48;;
31087;SDS011;17745;55.914;37.554;2023-02-07T18:11:17;34.00;;;15.43;;
31087;SDS011;17745;55.914;37.554;2023-02-07T18:13:56;26.62;;;15.27;;
31087;SDS011;17745;55.914;37.554;2023-02-07T18:16:27;20.12;;;12.55;;
31087;SDS011;17745;55.914;37.554;2023-02-07T18:19:18;29.10;;;13.07;;
31087;SDS011;17745;55.914;37.554;2023-02-07T18:21:59;25.95;;;13.93;;
31087;SDS011;17745;55.914;37.554;2023-02-07T18:24:58;27.58;;;13.57;;
31087;SDS011;17745;55.914;37.554;2023-02-07T18:28:02;19.52;;;12.40;;
31087;SDS011;17745;55.914;37.554;2023-02-07T18:31:06;29.08;;;14.43;;
31087;SDS011;17745;55.914;37.554;2023-02-07T18:34:01;22.50;;;12.98;;
31087;SDS011;17745;55.914;37.554;2023-02-07T18:57:58;22.73;;;12.15;;